createdAt,value
2019-03-02T00:02:24.241Z,6.90
2019-03-02T00:04:54.449Z,6.80
2019-03-02T00:07:23.916Z,6.70
2019-03-02T00:09:53.196Z,6.70
2019-03-02T00:12:22.793Z,6.70
2019-03-02T00:14:54.040Z,6.70
2019-03-02T00:17:23.251Z,6.80
2019-03-02T00:19:52.565Z,6.80
2019-03-02T00:22:21.885Z,6.80
2019-03-02T00:24:53.968Z,6.70
2019-03-02T00:27:22.253Z,6.70
2019-03-02T00:29:51.646Z,6.70
2019-03-02T00:32:21.237Z,6.70
2019-03-02T00:34:50.540Z,6.70
2019-03-02T00:37:19.884Z,6.70
2019-03-02T00:39:50.657Z,6.70
2019-03-02T00:42:22.754Z,6.70
2019-03-02T00:44:52.058Z,6.70
2019-03-02T00:47:21.333Z,6.70
2019-03-02T00:49:50.789Z,6.70
2019-03-02T00:52:20.559Z,6.70
2019-03-02T00:54:58.143Z,6.70
2019-03-02T00:57:23.000Z,6.70
2019-03-02T00:59:52.318Z,6.70
2019-03-02T01:02:21.733Z,6.70
2019-03-02T01:04:51.254Z,6.70
2019-03-02T01:07:20.766Z,6.80
2019-03-02T01:09:51.752Z,6.80
2019-03-02T01:12:21.900Z,6.80
2019-03-02T01:14:51.837Z,6.80
2019-03-02T01:17:21.257Z,6.80
2019-03-02T01:19:52.690Z,6.80
2019-03-02T01:22:21.577Z,6.80
2019-03-02T01:24:50.916Z,6.90
2019-03-02T01:27:20.229Z,6.90
2019-03-02T01:29:51.680Z,6.90
2019-03-02T01:32:20.526Z,6.80
2019-03-02T01:34:49.853Z,6.80
2019-03-02T01:37:19.135Z,6.80
2019-03-02T01:39:48.442Z,6.80
2019-03-02T01:42:18.011Z,6.90
2019-03-02T01:44:48.761Z,6.90
2019-03-02T01:47:18.366Z,6.90
2019-03-02T01:49:47.684Z,6.80
2019-03-02T01:52:16.968Z,6.90
2019-03-02T01:54:46.270Z,6.90
2019-03-02T01:57:17.184Z,6.90
2019-03-02T01:59:46.583Z,6.90
2019-03-02T02:02:15.866Z,6.90
2019-03-02T02:04:45.157Z,6.90
2019-03-02T02:07:17.820Z,6.90
2019-03-02T02:09:45.495Z,6.90
2019-03-02T02:12:14.863Z,6.90
2019-03-02T02:14:44.157Z,6.90
2019-03-02T02:17:14.427Z,6.90
2019-03-02T02:19:43.926Z,6.90
2019-03-02T02:22:13.228Z,6.90
2019-03-02T02:24:42.505Z,6.90
2019-03-02T02:27:11.825Z,6.90
2019-03-02T02:29:43.526Z,6.90
2019-03-02T02:32:12.142Z,6.90
2019-03-02T02:34:41.430Z,6.90
2019-03-02T02:37:10.743Z,6.90
2019-03-02T02:39:40.033Z,6.90
2019-03-02T02:42:09.362Z,6.90
2019-03-02T02:44:39.247Z,6.90
2019-03-02T02:47:12.552Z,6.90
2019-03-02T02:49:44.309Z,6.90
2019-03-02T02:52:10.736Z,6.90
2019-03-02T02:54:40.039Z,6.90
2019-03-02T02:57:09.331Z,6.90
2019-03-02T02:59:39.882Z,6.90
2019-03-02T03:02:10.725Z,6.90
2019-03-02T03:04:40.600Z,6.80
2019-03-02T03:07:12.337Z,6.80
2019-03-02T03:10:00.768Z,6.80
2019-03-02T03:12:30.057Z,6.80
2019-03-02T03:14:59.974Z,6.80
2019-03-02T03:17:32.432Z,6.80
2019-03-02T03:20:05.590Z,6.70
2019-03-02T03:22:32.099Z,6.70
2019-03-02T03:25:04.089Z,6.60
2019-03-02T03:27:32.453Z,6.60
2019-03-02T03:30:01.836Z,6.60
2019-03-02T03:32:31.185Z,6.60
2019-03-02T03:35:01.104Z,6.60
2019-03-02T03:37:31.597Z,6.50
2019-03-02T03:40:00.901Z,6.50
2019-03-02T03:42:30.450Z,6.40
2019-03-02T03:45:03.694Z,6.40
2019-03-02T03:47:34.163Z,6.30
2019-03-02T03:50:02.082Z,6.30
2019-03-02T03:52:31.357Z,6.30
2019-03-02T03:55:00.660Z,6.30
2019-03-02T03:57:29.944Z,6.20
2019-03-02T04:00:00.526Z,6.30
2019-03-02T04:02:31.281Z,6.30
2019-03-02T04:05:07.381Z,6.20
2019-03-02T04:07:32.351Z,6.30
2019-03-02T04:10:01.666Z,6.20
2019-03-02T04:12:30.957Z,6.20
2019-03-02T04:15:01.450Z,6.10
2019-03-02T04:17:34.138Z,6.20
2019-03-02T04:20:02.277Z,6.10
2019-03-02T04:22:31.591Z,6.20
2019-03-02T04:25:00.946Z,6.20
2019-03-02T04:27:30.281Z,6.30
2019-03-02T04:29:59.577Z,6.30
2019-03-02T04:32:29.055Z,6.20
2019-03-02T04:34:58.842Z,6.30
2019-03-02T04:37:28.289Z,6.30
2019-03-02T04:39:57.720Z,6.20
2019-03-02T04:42:27.058Z,6.20
2019-03-02T04:44:56.337Z,6.20
2019-03-02T04:47:26.229Z,6.20
2019-03-02T04:49:56.817Z,6.20
2019-03-02T04:52:26.174Z,6.30
2019-03-02T04:54:55.453Z,6.20
2019-03-02T04:57:24.752Z,6.30
2019-03-02T04:59:56.660Z,6.20
2019-03-02T05:02:25.055Z,6.30
2019-03-02T05:04:54.335Z,6.40
2019-03-02T05:07:26.779Z,6.30
2019-03-02T05:09:54.643Z,6.40
2019-03-02T05:12:23.992Z,6.30
2019-03-02T05:14:53.282Z,6.30
2019-03-02T05:17:22.574Z,6.40
2019-03-02T05:19:51.853Z,6.40
2019-03-02T05:22:21.168Z,6.50
2019-03-02T05:24:50.845Z,6.50
2019-03-02T05:27:20.149Z,6.50
2019-03-02T05:29:50.801Z,6.40
2019-03-02T05:32:20.474Z,6.40
2019-03-02T05:34:49.785Z,6.40
2019-03-02T05:37:19.085Z,6.40
2019-03-02T05:39:49.527Z,6.40
2019-03-02T05:42:19.397Z,6.30
2019-03-02T05:44:48.687Z,6.30
2019-03-02T05:47:17.982Z,6.30
2019-03-02T05:49:50.819Z,6.30
2019-03-02T05:52:18.717Z,6.20
2019-03-02T05:54:48.242Z,6.20
2019-03-02T05:57:17.527Z,6.20
2019-03-02T05:59:46.825Z,6.20
2019-03-02T06:02:17.236Z,6.20
2019-03-02T06:04:47.220Z,6.20
2019-03-02T06:07:16.525Z,6.20
2019-03-02T06:09:46.829Z,6.30
2019-03-02T06:12:16.862Z,6.30
2019-03-02T06:14:46.149Z,6.30
2019-03-02T06:17:15.487Z,6.20
2019-03-02T06:19:44.781Z,6.20
2019-03-02T06:22:14.083Z,6.20
2019-03-02T06:24:43.389Z,6.20
2019-03-02T06:27:12.669Z,6.20
2019-03-02T06:29:41.968Z,6.30
2019-03-02T06:32:11.255Z,6.30
2019-03-02T06:34:40.555Z,6.30
2019-03-02T06:37:09.833Z,6.30
2019-03-02T06:39:40.954Z,6.30
2019-03-02T06:42:11.192Z,6.30
2019-03-02T06:44:40.652Z,6.30
2019-03-02T06:47:09.973Z,6.30
2019-03-02T06:49:39.288Z,6.30
2019-03-02T06:52:08.568Z,6.30
2019-03-02T06:54:37.901Z,6.30
2019-03-02T06:57:07.293Z,6.30
2019-03-02T06:59:39.386Z,6.30
2019-03-02T07:02:07.664Z,6.40
2019-03-02T07:04:37.013Z,6.40
2019-03-02T07:07:06.379Z,6.40
2019-03-02T07:09:35.719Z,6.40
2019-03-02T07:12:05.883Z,6.40
2019-03-02T07:14:36.090Z,6.30
2019-03-02T07:17:05.381Z,6.30
2019-03-02T07:19:48.645Z,6.40
2019-03-02T07:22:18.062Z,6.40
2019-03-02T07:24:47.374Z,6.50
2019-03-02T07:27:16.676Z,6.60
2019-03-02T07:29:45.979Z,6.50
2019-03-02T07:32:15.576Z,6.50
2019-03-02T07:34:44.983Z,6.60
2019-03-02T07:37:14.295Z,6.70
2019-03-02T07:39:43.587Z,6.80
2019-03-02T07:42:12.925Z,6.80
2019-03-02T07:44:42.281Z,6.70
2019-03-02T07:47:11.672Z,6.80
2019-03-02T07:49:41.021Z,6.80
2019-03-02T07:52:13.780Z,6.90
2019-03-02T07:54:42.530Z,6.80
2019-03-02T07:57:12.589Z,6.90
2019-03-02T07:59:43.209Z,6.90
2019-03-02T08:02:12.508Z,6.90
2019-03-02T08:04:41.851Z,6.90
2019-03-02T08:07:11.228Z,7.10
2019-03-02T08:09:41.018Z,7.00
2019-03-02T08:12:10.388Z,7.10
2019-03-02T08:14:39.847Z,7.20
2019-03-02T08:17:09.791Z,7.10
2019-03-02T08:19:40.294Z,7.10
2019-03-02T08:22:11.066Z,7.20
2019-03-02T08:24:43.833Z,7.20
2019-03-02T08:27:11.715Z,7.20
2019-03-02T08:29:41.015Z,7.30
2019-03-02T08:32:10.443Z,7.30
2019-03-02T08:34:42.779Z,7.30
2019-03-02T08:37:10.811Z,7.30
2019-03-02T08:39:42.855Z,7.30
2019-03-02T08:42:12.117Z,7.30
2019-03-02T08:44:42.138Z,7.30
2019-03-02T08:47:11.468Z,7.40
2019-03-02T08:49:41.783Z,7.50
2019-03-02T08:52:11.827Z,7.50
2019-03-02T08:54:41.152Z,7.50
2019-03-02T08:57:10.436Z,7.50
2019-03-02T08:59:39.803Z,7.60
2019-03-02T09:02:09.112Z,7.60
2019-03-02T09:04:38.440Z,7.70
2019-03-02T09:07:10.999Z,7.70
2019-03-02T09:09:38.799Z,7.80
2019-03-02T09:12:08.120Z,7.80
2019-03-02T09:14:37.411Z,7.70
2019-03-02T09:17:06.726Z,7.60
2019-03-02T09:19:36.344Z,7.60
2019-03-02T09:22:05.688Z,7.80
2019-03-02T09:24:34.997Z,7.90
2019-03-02T09:27:04.763Z,7.90
2019-03-02T09:29:34.115Z,7.90
2019-03-02T09:32:03.437Z,8.00
2019-03-02T09:34:32.717Z,7.90
2019-03-02T09:37:03.778Z,7.90
2019-03-02T09:39:37.320Z,8.10
2019-03-02T09:42:04.149Z,8.10
2019-03-02T09:44:36.320Z,8.10
2019-03-02T09:47:05.053Z,8.10
2019-03-02T09:49:37.353Z,8.20
2019-03-02T09:52:06.781Z,8.30
2019-03-02T09:54:36.084Z,8.40
2019-03-02T09:57:05.414Z,8.50
2019-03-02T09:59:34.778Z,8.50
2019-03-02T10:02:04.453Z,8.50
2019-03-02T10:04:35.888Z,8.60
2019-03-02T10:07:04.767Z,8.70
2019-03-02T10:09:34.096Z,8.70
2019-03-02T10:12:03.466Z,8.70
2019-03-02T10:14:32.785Z,8.80
2019-03-02T10:17:02.698Z,8.80
2019-03-02T10:19:32.136Z,8.80
2019-03-02T10:22:01.443Z,8.90
2019-03-02T10:24:30.732Z,8.90
2019-03-02T10:27:00.057Z,9.00
2019-03-02T10:29:29.345Z,9.10
2019-03-02T10:31:58.629Z,9.60
2019-03-02T10:34:28.029Z,9.90
2019-03-02T10:36:57.340Z,10.10
2019-03-02T10:39:29.145Z,10.30
2019-03-02T10:42:00.434Z,10.50
2019-03-02T10:44:28.720Z,10.50
2019-03-02T10:46:58.077Z,10.70
2019-03-02T10:49:27.409Z,10.90
2019-03-02T10:51:56.714Z,11.00
2019-03-02T10:54:26.010Z,11.10
2019-03-02T10:56:56.720Z,11.20
2019-03-02T10:59:26.379Z,11.10
2019-03-02T11:01:55.776Z,11.00
2019-03-02T11:04:47.099Z,10.90
2019-03-02T11:07:36.260Z,10.90
2019-03-02T11:10:32.100Z,11.30
2019-03-02T11:13:20.739Z,11.50
2019-03-02T11:16:14.630Z,11.70
2019-03-02T11:18:57.938Z,12.00
2019-03-02T11:21:34.778Z,11.80
2019-03-02T11:24:23.958Z,11.80
2019-03-02T11:27:14.286Z,11.90
2019-03-02T11:30:08.627Z,12.00
2019-03-02T11:32:59.210Z,12.10
2019-03-02T11:35:50.387Z,12.10
2019-03-02T11:38:28.085Z,12.30
2019-03-02T11:41:10.348Z,12.40
2019-03-02T11:43:53.415Z,12.40
2019-03-02T11:46:30.562Z,12.50
2019-03-02T11:49:17.829Z,12.70
2019-03-02T11:52:05.406Z,12.60
2019-03-02T11:55:12.031Z,12.60
2019-03-02T11:58:03.205Z,12.60
2019-03-02T12:00:54.200Z,12.80
2019-03-02T12:03:44.348Z,13.40
2019-03-02T12:06:41.946Z,13.30
2019-03-02T12:09:36.138Z,13.30
2019-03-02T12:12:14.871Z,13.40
2019-03-02T12:15:03.118Z,13.20
2019-03-02T12:17:55.439Z,12.90
2019-03-02T12:20:41.333Z,13.00
2019-03-02T12:23:37.672Z,13.00
2019-03-02T12:26:32.056Z,12.90
2019-03-02T12:29:29.424Z,13.20
2019-03-02T12:32:24.610Z,13.60
2019-03-02T12:35:05.388Z,14.00
2019-03-02T12:38:13.624Z,14.40
2019-03-02T12:41:12.103Z,15.10
2019-03-02T12:44:08.524Z,14.90
2019-03-02T12:47:00.964Z,14.00
2019-03-02T12:50:07.542Z,13.50
2019-03-02T12:52:51.825Z,13.10
2019-03-02T12:55:39.489Z,12.70
2019-03-02T12:58:33.561Z,12.80
2019-03-02T13:01:40.197Z,12.70
2019-03-02T13:04:31.297Z,12.50
2019-03-02T13:07:28.292Z,12.40
2019-03-02T13:10:16.829Z,12.70
2019-03-02T13:12:56.689Z,12.90
2019-03-02T13:15:45.502Z,13.40
2019-03-02T13:18:28.684Z,13.60
2019-03-02T13:21:19.973Z,13.70
2019-03-02T13:24:03.101Z,13.50
2019-03-02T13:26:57.150Z,13.70
2019-03-02T13:29:36.110Z,13.50
2019-03-02T13:32:19.904Z,13.30
2019-03-02T13:35:19.947Z,13.20
2019-03-02T13:37:58.761Z,13.20
2019-03-02T13:40:45.386Z,13.10
2019-03-02T13:43:37.669Z,13.00
2019-03-02T13:46:38.130Z,13.00
2019-03-02T13:49:26.475Z,12.90
2019-03-02T13:52:23.841Z,12.90
2019-03-02T13:55:13.494Z,12.80
2019-03-02T13:58:05.001Z,12.50
2019-03-02T14:00:59.382Z,12.50
2019-03-02T14:04:05.718Z,12.60
2019-03-02T14:06:58.082Z,12.60
2019-03-02T14:09:41.596Z,12.70
2019-03-02T14:12:31.989Z,12.50
2019-03-02T14:15:21.711Z,12.50
2019-03-02T14:18:09.501Z,12.50
2019-03-02T14:20:51.469Z,12.40
2019-03-02T14:23:40.275Z,12.40
2019-03-02T14:26:27.389Z,12.40
2019-03-02T14:29:08.170Z,12.30
2019-03-02T14:31:53.873Z,12.30
2019-03-02T14:35:00.640Z,12.20
2019-03-02T14:37:53.127Z,12.10
2019-03-02T14:40:27.563Z,12.10
2019-03-02T14:43:19.697Z,12.10
2019-03-02T14:45:59.241Z,12.00
2019-03-02T14:48:49.241Z,12.00
2019-03-02T14:51:46.703Z,12.00
2019-03-02T14:54:40.517Z,12.10
2019-03-02T14:57:17.213Z,12.10
2019-03-02T15:00:08.230Z,12.10
2019-03-02T15:03:08.816Z,12.10
2019-03-02T15:05:56.929Z,12.10
2019-03-02T15:08:48.685Z,12.10
2019-03-02T15:11:41.080Z,12.00
2019-03-02T15:14:42.526Z,11.90
2019-03-02T15:17:34.511Z,11.70
2019-03-02T15:20:16.434Z,11.40
2019-03-02T15:23:10.686Z,11.20
2019-03-02T15:25:46.469Z,11.00
2019-03-02T15:28:34.072Z,10.90
2019-03-02T15:31:39.291Z,10.90
2019-03-02T15:34:18.845Z,10.90
2019-03-02T15:37:13.439Z,10.90
2019-03-02T15:39:53.870Z,10.80
2019-03-02T15:42:46.004Z,10.80
2019-03-02T15:45:33.047Z,10.90
2019-03-02T15:48:33.472Z,11.80
2019-03-02T15:51:11.889Z,12.50
2019-03-02T15:53:57.362Z,12.40
2019-03-02T15:56:45.699Z,12.20
2019-03-02T15:59:32.169Z,11.70
2019-03-02T16:02:26.089Z,11.40
2019-03-02T16:05:03.278Z,11.30
2019-03-02T16:07:50.440Z,11.10
2019-03-02T16:10:32.310Z,11.20
2019-03-02T16:13:36.014Z,11.20
2019-03-02T16:16:28.891Z,11.20
2019-03-02T16:19:15.796Z,11.20
2019-03-02T16:21:53.035Z,11.20
2019-03-02T16:24:42.202Z,11.20
2019-03-02T16:27:20.525Z,11.20
2019-03-02T16:30:11.834Z,11.20
2019-03-02T16:33:03.243Z,11.20
2019-03-02T16:36:03.637Z,11.20
2019-03-02T16:38:57.109Z,11.10
2019-03-02T16:41:50.587Z,11.00
2019-03-02T16:44:30.469Z,10.80
2019-03-02T16:47:11.320Z,10.70
2019-03-02T16:49:52.726Z,10.60
2019-03-02T16:52:38.837Z,10.50
2019-03-02T16:55:24.388Z,10.40
2019-03-02T16:58:13.976Z,10.20
2019-03-02T17:01:05.659Z,10.10
2019-03-02T17:03:52.510Z,10.00
2019-03-02T17:06:30.627Z,9.80
2019-03-02T17:09:07.902Z,9.80
2019-03-02T17:11:56.940Z,9.70
2019-03-02T17:14:50.389Z,9.70
2019-03-02T17:17:37.259Z,9.60
2019-03-02T17:20:29.883Z,9.60
2019-03-02T17:23:22.170Z,9.60
2019-03-02T17:25:50.779Z,9.50
2019-03-02T17:28:46.508Z,9.50
2019-03-02T17:31:30.849Z,9.40
2019-03-02T17:34:11.208Z,9.50
2019-03-02T17:36:58.374Z,9.50
2019-03-02T17:40:01.079Z,9.50
2019-03-02T17:42:39.701Z,9.50
2019-03-02T17:45:37.281Z,9.50
2019-03-02T17:48:15.124Z,9.60
2019-03-02T17:50:58.524Z,9.60
2019-03-02T17:53:37.819Z,9.60
2019-03-02T17:56:40.963Z,9.70
2019-03-02T17:59:25.773Z,9.70
2019-03-02T18:02:04.970Z,9.70
2019-03-02T18:04:57.827Z,9.80
2019-03-02T18:07:43.179Z,9.80
2019-03-02T18:10:37.829Z,9.80
2019-03-02T18:13:35.517Z,9.80
2019-03-02T18:16:23.464Z,9.80
2019-03-02T18:18:52.901Z,9.80
2019-03-02T18:21:22.282Z,9.80
2019-03-02T18:23:51.801Z,9.80
2019-03-02T18:26:24.009Z,9.80
2019-03-02T18:28:54.266Z,9.80
2019-03-02T18:31:23.376Z,9.80
2019-03-02T18:33:56.225Z,9.80
2019-03-02T18:36:25.641Z,9.80
2019-03-02T18:38:55.025Z,9.70
2019-03-02T18:41:24.434Z,9.80
2019-03-02T18:43:53.754Z,9.80
2019-03-02T18:46:23.116Z,9.90
2019-03-02T18:49:14.166Z,9.80
2019-03-02T18:51:59.930Z,9.80
2019-03-02T18:54:29.209Z,9.80
2019-03-02T18:56:58.504Z,9.90
2019-03-02T18:59:27.817Z,9.90
2019-03-02T19:01:57.097Z,9.90
2019-03-02T19:04:28.869Z,9.90
2019-03-02T19:06:59.174Z,9.90
2019-03-02T19:09:32.158Z,10.00
2019-03-02T19:12:00.816Z,10.00
2019-03-02T19:14:30.395Z,10.00
2019-03-02T19:16:59.852Z,10.00
2019-03-02T19:19:29.136Z,10.10
2019-03-02T19:21:58.645Z,10.10
2019-03-02T19:24:28.079Z,10.10
2019-03-02T19:26:57.620Z,10.10
2019-03-02T19:29:27.047Z,10.20
2019-03-02T19:31:56.427Z,10.20
2019-03-02T19:34:25.803Z,10.20
2019-03-02T19:36:55.188Z,10.20
2019-03-02T19:39:26.013Z,10.20
2019-03-02T19:41:55.573Z,10.30
2019-03-02T19:44:24.994Z,10.30
2019-03-02T19:46:54.361Z,10.30
2019-03-02T19:49:23.692Z,10.40
2019-03-02T19:51:53.121Z,10.30
2019-03-02T19:54:22.432Z,10.40
2019-03-02T19:56:51.709Z,10.40
2019-03-02T19:59:21.048Z,10.50
2019-03-02T20:01:50.341Z,10.50
2019-03-02T20:04:20.513Z,10.50
2019-03-02T20:06:49.914Z,10.50
2019-03-02T20:09:19.203Z,10.50
2019-03-02T20:11:48.549Z,10.60
2019-03-02T20:14:17.912Z,10.60
2019-03-02T20:16:47.244Z,10.70
2019-03-02T20:19:16.621Z,10.60
2019-03-02T20:21:45.944Z,10.60
2019-03-02T20:24:15.292Z,10.60
2019-03-02T20:26:44.585Z,10.60
2019-03-02T20:29:13.887Z,10.70
2019-03-02T20:31:43.201Z,10.60
2019-03-02T20:34:12.542Z,10.60
2019-03-02T20:36:41.929Z,10.60
2019-03-02T20:39:11.235Z,10.60
2019-03-02T20:41:40.885Z,10.70
2019-03-02T20:44:10.200Z,10.70
2019-03-02T20:46:39.508Z,10.70
2019-03-02T20:49:09.576Z,10.70
2019-03-02T20:51:38.880Z,10.70
2019-03-02T20:54:08.361Z,10.80
2019-03-02T20:56:37.672Z,10.80
2019-03-02T20:59:06.985Z,10.80
2019-03-02T21:01:36.308Z,10.80
2019-03-02T21:04:05.733Z,10.90
2019-03-02T21:06:35.292Z,10.90
2019-03-02T21:09:06.677Z,10.90
2019-03-02T21:11:36.017Z,10.90
2019-03-02T21:14:05.350Z,10.90
2019-03-02T21:16:34.770Z,11.00
2019-03-02T21:19:04.126Z,10.90
2019-03-02T21:21:33.417Z,10.80
2019-03-02T21:24:02.711Z,10.70
2019-03-02T21:26:32.113Z,10.70
2019-03-02T21:29:01.591Z,10.80
2019-03-02T21:31:30.991Z,10.80
2019-03-02T21:34:00.392Z,10.70
2019-03-02T21:36:29.689Z,10.80
2019-03-02T21:38:59.046Z,10.80
2019-03-02T21:41:28.349Z,10.70
2019-03-02T21:43:57.641Z,10.60
2019-03-02T21:46:26.948Z,10.70
2019-03-02T21:48:56.317Z,10.70
2019-03-02T21:51:26.014Z,10.70
2019-03-02T21:53:55.321Z,10.80
2019-03-02T21:56:24.685Z,10.80
2019-03-02T21:58:54.060Z,10.90
2019-03-02T22:01:23.404Z,10.80
2019-03-02T22:03:52.722Z,10.80
2019-03-02T22:06:22.090Z,10.90
2019-03-02T22:08:51.555Z,10.80
2019-03-02T22:11:20.897Z,10.80
2019-03-02T22:13:50.246Z,10.70
2019-03-02T22:16:19.572Z,10.70
2019-03-02T22:18:48.921Z,10.70
2019-03-02T22:21:18.375Z,10.50
2019-03-02T22:23:47.725Z,10.40
2019-03-02T22:26:17.558Z,10.30
2019-03-02T22:28:47.420Z,10.20
2019-03-02T22:31:16.783Z,10.00
2019-03-02T22:33:46.277Z,10.00
2019-03-02T22:36:15.677Z,10.10
2019-03-02T22:38:45.013Z,10.00
2019-03-02T22:41:14.314Z,9.90
2019-03-02T22:43:43.755Z,9.90
2019-03-02T22:46:13.082Z,10.00
2019-03-02T22:48:42.458Z,10.00
2019-03-02T22:51:11.841Z,10.10
2019-03-02T22:53:41.150Z,10.00
2019-03-02T22:56:10.514Z,10.10
2019-03-02T22:58:38.850Z,10.00
2019-03-02T23:01:52.012Z,10.10
2019-03-02T23:04:21.365Z,10.10
2019-03-02T23:06:50.657Z,10.10
2019-03-02T23:09:20.065Z,10.20
2019-03-02T23:11:49.411Z,10.20
2019-03-02T23:14:18.807Z,10.20
2019-03-02T23:16:48.205Z,10.20
2019-03-02T23:19:17.561Z,10.20
2019-03-02T23:21:46.939Z,10.20
2019-03-02T23:24:16.290Z,10.20
2019-03-02T23:26:45.720Z,10.20
2019-03-02T23:29:15.013Z,10.20
2019-03-02T23:31:45.940Z,10.20
2019-03-02T23:34:15.341Z,10.20
2019-03-02T23:36:44.670Z,10.20
2019-03-02T23:39:14.033Z,10.20
2019-03-02T23:41:43.413Z,10.20
2019-03-02T23:44:14.075Z,10.10
2019-03-02T23:46:43.513Z,10.10
2019-03-02T23:49:12.854Z,10.10
2019-03-02T23:51:42.223Z,10.00
2019-03-02T23:54:11.594Z,9.90
2019-03-02T23:56:40.933Z,9.90
2019-03-02T23:59:10.303Z,9.80
